sensor_id;sensor_type;location;lat;lon;timestamp;temperature;humidity
81524;DHT22;70954;49.500;10.416;2024-01-10T00:00:02;-2.90;51.20
81524;DHT22;70954;49.500;10.416;2024-01-10T00:02:28;-3.00;51.20
81524;DHT22;70954;49.500;10.416;2024-01-10T00:04:53;-2.90;51.10
81524;DHT22;70954;49.500;10.416;2024-01-10T00:07:19;-3.00;51.20
81524;DHT22;70954;49.500;10.416;2024-01-10T00:09:44;-3.00;51.20
81524;DHT22;70954;49.500;10.416;2024-01-10T00:12:10;-3.00;51.30
81524;DHT22;70954;49.500;10.416;2024-01-10T00:14:35;-3.00;51.30
81524;DHT22;70954;49.500;10.416;2024-01-10T00:17:00;-3.00;51.20
81524;DHT22;70954;49.500;10.416;2024-01-10T00:19:26;-3.10;51.30
81524;DHT22;70954;49.500;10.416;2024-01-10T00:21:51;-3.10;51.30
81524;DHT22;70954;49.500;10.416;2024-01-10T00:24:17;-3.10;51.30
81524;DHT22;70954;49.500;10.416;2024-01-10T00:26:42;-3.10;51.30
81524;DHT22;70954;49.500;10.416;2024-01-10T00:29:08;-3.20;51.40
81524;DHT22;70954;49.500;10.416;2024-01-10T00:31:33;-3.20;51.30
81524;DHT22;70954;49.500;10.416;2024-01-10T00:33:58;-3.20;51.40
81524;DHT22;70954;49.500;10.416;2024-01-10T00:36:24;-3.20;51.30
81524;DHT22;70954;49.500;10.416;2024-01-10T00:38:49;-3.20;51.40
81524;DHT22;70954;49.500;10.416;2024-01-10T00:41:15;-3.20;51.40
81524;DHT22;70954;49.500;10.416;2024-01-10T00:43:40;-3.20;51.30
81524;DHT22;70954;49.500;10.416;2024-01-10T00:46:06;-3.20;51.40
81524;DHT22;70954;49.500;10.416;2024-01-10T00:48:31;-3.20;51.40
81524;DHT22;70954;49.500;10.416;2024-01-10T00:50:57;-3.20;51.40
81524;DHT22;70954;49.500;10.416;2024-01-10T00:53:22;-3.20;51.40
81524;DHT22;70954;49.500;10.416;2024-01-10T00:55:48;-3.20;51.50
81524;DHT22;70954;49.500;10.416;2024-01-10T00:58:13;-3.20;51.50
81524;DHT22;70954;49.500;10.416;2024-01-10T01:00:39;-3.20;51.50
81524;DHT22;70954;49.500;10.416;2024-01-10T01:03:06;-3.30;51.50
81524;DHT22;70954;49.500;10.416;2024-01-10T01:05:31;-3.30;51.60
81524;DHT22;70954;49.500;10.416;2024-01-10T01:07:57;-3.30;51.50
81524;DHT22;70954;49.500;10.416;2024-01-10T01:10:22;-3.30;51.60
81524;DHT22;70954;49.500;10.416;2024-01-10T01:12:48;-3.40;51.60
81524;DHT22;70954;49.500;10.416;2024-01-10T01:15:13;-3.30;51.60
81524;DHT22;70954;49.500;10.416;2024-01-10T01:17:39;-3.30;51.60
81524;DHT22;70954;49.500;10.416;2024-01-10T01:20:05;-3.30;51.60
81524;DHT22;70954;49.500;10.416;2024-01-10T01:22:31;-3.40;51.60
81524;DHT22;70954;49.500;10.416;2024-01-10T01:24:56;-3.40;51.70
81524;DHT22;70954;49.500;10.416;2024-01-10T01:27:22;-3.40;51.70
81524;DHT22;70954;49.500;10.416;2024-01-10T01:29:47;-3.40;51.70
81524;DHT22;70954;49.500;10.416;2024-01-10T01:32:13;-3.40;51.80
81524;DHT22;70954;49.500;10.416;2024-01-10T01:34:38;-3.40;51.80
81524;DHT22;70954;49.500;10.416;2024-01-10T01:37:03;-3.40;51.90
81524;DHT22;70954;49.500;10.416;2024-01-10T01:39:29;-3.40;51.90
81524;DHT22;70954;49.500;10.416;2024-01-10T01:41:54;-3.40;52.00
81524;DHT22;70954;49.500;10.416;2024-01-10T01:44:20;-3.40;51.90
81524;DHT22;70954;49.500;10.416;2024-01-10T01:46:46;-3.40;51.90
81524;DHT22;70954;49.500;10.416;2024-01-10T01:49:14;-3.40;52.00
81524;DHT22;70954;49.500;10.416;2024-01-10T01:51:40;-3.40;52.20
81524;DHT22;70954;49.500;10.416;2024-01-10T01:54:07;-3.40;52.20
81524;DHT22;70954;49.500;10.416;2024-01-10T01:56:33;-3.40;52.30
81524;DHT22;70954;49.500;10.416;2024-01-10T01:58:59;-3.40;52.20
81524;DHT22;70954;49.500;10.416;2024-01-10T02:01:25;-3.30;52.30
81524;DHT22;70954;49.500;10.416;2024-01-10T02:03:50;-3.40;52.30
81524;DHT22;70954;49.500;10.416;2024-01-10T02:06:16;-3.40;52.40
81524;DHT22;70954;49.500;10.416;2024-01-10T02:08:41;-3.30;52.40
81524;DHT22;70954;49.500;10.416;2024-01-10T02:11:07;-3.30;52.40
81524;DHT22;70954;49.500;10.416;2024-01-10T02:13:33;-3.30;52.50
81524;DHT22;70954;49.500;10.416;2024-01-10T02:15:59;-3.20;52.50
81524;DHT22;70954;49.500;10.416;2024-01-10T02:18:25;-3.20;52.60
81524;DHT22;70954;49.500;10.416;2024-01-10T02:20:50;-3.20;52.50
81524;DHT22;70954;49.500;10.416;2024-01-10T02:23:15;-3.20;52.50
81524;DHT22;70954;49.500;10.416;2024-01-10T02:25:41;-3.20;52.50
81524;DHT22;70954;49.500;10.416;2024-01-10T02:28:07;-3.20;52.40
81524;DHT22;70954;49.500;10.416;2024-01-10T02:30:33;-3.20;52.50
81524;DHT22;70954;49.500;10.416;2024-01-10T02:32:59;-3.20;52.50
81524;DHT22;70954;49.500;10.416;2024-01-10T02:35:24;-3.20;52.50
81524;DHT22;70954;49.500;10.416;2024-01-10T02:37:50;-3.20;52.50
81524;DHT22;70954;49.500;10.416;2024-01-10T02:40:15;-3.20;52.50
81524;DHT22;70954;49.500;10.416;2024-01-10T02:42:41;-3.20;52.50
81524;DHT22;70954;49.500;10.416;2024-01-10T02:45:07;-3.20;52.40
81524;DHT22;70954;49.500;10.416;2024-01-10T02:47:32;-3.20;52.40
81524;DHT22;70954;49.500;10.416;2024-01-10T02:49:58;-3.20;52.50
81524;DHT22;70954;49.500;10.416;2024-01-10T02:52:23;-3.20;52.50
81524;DHT22;70954;49.500;10.416;2024-01-10T02:54:49;-3.20;52.50
81524;DHT22;70954;49.500;10.416;2024-01-10T02:57:14;-3.20;52.50
81524;DHT22;70954;49.500;10.416;2024-01-10T02:59:39;-3.20;52.50
81524;DHT22;70954;49.500;10.416;2024-01-10T03:02:05;-3.20;52.50
81524;DHT22;70954;49.500;10.416;2024-01-10T03:04:30;-3.20;52.50
81524;DHT22;70954;49.500;10.416;2024-01-10T03:06:56;-3.20;52.60
81524;DHT22;70954;49.500;10.416;2024-01-10T03:09:23;-3.20;52.60
81524;DHT22;70954;49.500;10.416;2024-01-10T03:11:48;-3.30;52.70
81524;DHT22;70954;49.500;10.416;2024-01-10T03:14:14;-3.30;52.70
81524;DHT22;70954;49.500;10.416;2024-01-10T03:16:39;-3.30;52.80
81524;DHT22;70954;49.500;10.416;2024-01-10T03:19:05;-3.30;52.90
81524;DHT22;70954;49.500;10.416;2024-01-10T03:21:30;-3.40;52.90
81524;DHT22;70954;49.500;10.416;2024-01-10T03:23:57;-3.40;52.80
81524;DHT22;70954;49.500;10.416;2024-01-10T03:26:23;-3.40;52.90
81524;DHT22;70954;49.500;10.416;2024-01-10T03:28:49;-3.40;52.90
81524;DHT22;70954;49.500;10.416;2024-01-10T03:31:16;-3.40;52.90
81524;DHT22;70954;49.500;10.416;2024-01-10T03:33:41;-3.40;53.00
81524;DHT22;70954;49.500;10.416;2024-01-10T03:36:11;-3.40;53.00
81524;DHT22;70954;49.500;10.416;2024-01-10T03:38:36;-3.40;53.00
81524;DHT22;70954;49.500;10.416;2024-01-10T03:41:02;-3.50;53.00
81524;DHT22;70954;49.500;10.416;2024-01-10T03:43:27;-3.40;53.00
81524;DHT22;70954;49.500;10.416;2024-01-10T03:45:53;-3.40;53.10
81524;DHT22;70954;49.500;10.416;2024-01-10T03:48:18;-3.50;53.10
81524;DHT22;70954;49.500;10.416;2024-01-10T03:50:44;-3.50;53.10
81524;DHT22;70954;49.500;10.416;2024-01-10T03:53:09;-3.50;53.10
81524;DHT22;70954;49.500;10.416;2024-01-10T03:55:35;-3.50;53.20
81524;DHT22;70954;49.500;10.416;2024-01-10T03:58:00;-3.50;53.20
81524;DHT22;70954;49.500;10.416;2024-01-10T04:00:26;-3.50;53.20
81524;DHT22;70954;49.500;10.416;2024-01-10T04:02:52;-3.50;53.20
81524;DHT22;70954;49.500;10.416;2024-01-10T04:05:17;-3.60;53.20
81524;DHT22;70954;49.500;10.416;2024-01-10T04:07:43;-3.60;53.20
81524;DHT22;70954;49.500;10.416;2024-01-10T04:10:09;-3.60;53.30
81524;DHT22;70954;49.500;10.416;2024-01-10T04:12:34;-3.60;53.20
81524;DHT22;70954;49.500;10.416;2024-01-10T04:14:59;-3.60;53.30
81524;DHT22;70954;49.500;10.416;2024-01-10T04:17:25;-3.60;53.30
81524;DHT22;70954;49.500;10.416;2024-01-10T04:19:50;-3.60;53.40
81524;DHT22;70954;49.500;10.416;2024-01-10T04:22:16;-3.60;53.30
81524;DHT22;70954;49.500;10.416;2024-01-10T04:24:41;-3.70;53.40
81524;DHT22;70954;49.500;10.416;2024-01-10T04:27:07;-3.70;53.50
81524;DHT22;70954;49.500;10.416;2024-01-10T04:29:32;-3.70;53.40
81524;DHT22;70954;49.500;10.416;2024-01-10T04:31:57;-3.80;53.50
81524;DHT22;70954;49.500;10.416;2024-01-10T04:34:23;-3.80;53.60
81524;DHT22;70954;49.500;10.416;2024-01-10T04:36:48;-3.80;53.60
81524;DHT22;70954;49.500;10.416;2024-01-10T04:39:14;-3.80;53.60
81524;DHT22;70954;49.500;10.416;2024-01-10T04:41:39;-3.80;53.60
81524;DHT22;70954;49.500;10.416;2024-01-10T04:44:05;-3.80;53.60
81524;DHT22;70954;49.500;10.416;2024-01-10T04:46:30;-3.80;53.70
81524;DHT22;70954;49.500;10.416;2024-01-10T04:48:55;-3.80;53.70
81524;DHT22;70954;49.500;10.416;2024-01-10T04:51:21;-3.80;53.80
81524;DHT22;70954;49.500;10.416;2024-01-10T04:53:46;-3.80;53.80
81524;DHT22;70954;49.500;10.416;2024-01-10T04:56:12;-3.80;53.90
81524;DHT22;70954;49.500;10.416;2024-01-10T04:58:37;-3.80;53.90
81524;DHT22;70954;49.500;10.416;2024-01-10T05:01:03;-3.80;53.90
81524;DHT22;70954;49.500;10.416;2024-01-10T05:03:28;-3.80;54.00
81524;DHT22;70954;49.500;10.416;2024-01-10T05:05:54;-3.90;54.00
81524;DHT22;70954;49.500;10.416;2024-01-10T05:08:19;-3.90;54.00
81524;DHT22;70954;49.500;10.416;2024-01-10T05:10:45;-3.90;54.00
81524;DHT22;70954;49.500;10.416;2024-01-10T05:13:10;-3.90;54.00
81524;DHT22;70954;49.500;10.416;2024-01-10T05:15:35;-3.90;54.10
81524;DHT22;70954;49.500;10.416;2024-01-10T05:18:01;-3.90;54.20
81524;DHT22;70954;49.500;10.416;2024-01-10T05:20:26;-4.00;54.30
81524;DHT22;70954;49.500;10.416;2024-01-10T05:22:52;-3.90;54.30
81524;DHT22;70954;49.500;10.416;2024-01-10T05:25:17;-3.90;54.30
81524;DHT22;70954;49.500;10.416;2024-01-10T05:27:43;-3.90;54.30
81524;DHT22;70954;49.500;10.416;2024-01-10T05:30:08;-3.90;54.40
81524;DHT22;70954;49.500;10.416;2024-01-10T05:32:34;-4.00;54.40
81524;DHT22;70954;49.500;10.416;2024-01-10T05:34:59;-3.90;54.50
81524;DHT22;70954;49.500;10.416;2024-01-10T05:37:25;-3.90;54.60
81524;DHT22;70954;49.500;10.416;2024-01-10T05:39:50;-3.90;54.60
81524;DHT22;70954;49.500;10.416;2024-01-10T05:42:16;-3.90;54.70
81524;DHT22;70954;49.500;10.416;2024-01-10T05:44:41;-3.90;54.60
81524;DHT22;70954;49.500;10.416;2024-01-10T05:47:07;-3.90;54.70
81524;DHT22;70954;49.500;10.416;2024-01-10T05:49:32;-3.80;54.70
81524;DHT22;70954;49.500;10.416;2024-01-10T05:51:57;-3.80;54.70
81524;DHT22;70954;49.500;10.416;2024-01-10T05:54:23;-3.80;54.70
81524;DHT22;70954;49.500;10.416;2024-01-10T05:56:48;-3.80;54.70
81524;DHT22;70954;49.500;10.416;2024-01-10T05:59:14;-3.80;54.70
81524;DHT22;70954;49.500;10.416;2024-01-10T06:01:39;-3.80;54.70
81524;DHT22;70954;49.500;10.416;2024-01-10T06:04:05;-3.80;54.60
81524;DHT22;70954;49.500;10.416;2024-01-10T06:06:30;-3.80;54.60
81524;DHT22;70954;49.500;10.416;2024-01-10T06:08:55;-3.80;54.60
81524;DHT22;70954;49.500;10.416;2024-01-10T06:11:21;-3.80;54.70
81524;DHT22;70954;49.500;10.416;2024-01-10T06:13:46;-3.70;54.50
81524;DHT22;70954;49.500;10.416;2024-01-10T06:16:12;-3.70;54.50
81524;DHT22;70954;49.500;10.416;2024-01-10T06:18:38;-3.70;54.60
81524;DHT22;70954;49.500;10.416;2024-01-10T06:21:03;-3.70;54.50
81524;DHT22;70954;49.500;10.416;2024-01-10T06:23:29;-3.70;54.50
81524;DHT22;70954;49.500;10.416;2024-01-10T06:25:54;-3.60;54.60
81524;DHT22;70954;49.500;10.416;2024-01-10T06:28:20;-3.60;54.50
81524;DHT22;70954;49.500;10.416;2024-01-10T06:30:45;-3.60;54.40
81524;DHT22;70954;49.500;10.416;2024-01-10T06:33:11;-3.60;54.40
81524;DHT22;70954;49.500;10.416;2024-01-10T06:35:36;-3.60;54.40
81524;DHT22;70954;49.500;10.416;2024-01-10T06:38:02;-3.60;54.50
81524;DHT22;70954;49.500;10.416;2024-01-10T06:40:27;-3.60;54.40
81524;DHT22;70954;49.500;10.416;2024-01-10T06:42:53;-3.60;54.40
81524;DHT22;70954;49.500;10.416;2024-01-10T06:45:18;-3.60;54.60
81524;DHT22;70954;49.500;10.416;2024-01-10T06:47:44;-3.60;54.50
81524;DHT22;70954;49.500;10.416;2024-01-10T06:50:09;-3.60;54.50
81524;DHT22;70954;49.500;10.416;2024-01-10T06:52:35;-3.60;54.50
81524;DHT22;70954;49.500;10.416;2024-01-10T06:55:00;-3.60;54.60
81524;DHT22;70954;49.500;10.416;2024-01-10T06:57:26;-3.60;54.50
81524;DHT22;70954;49.500;10.416;2024-01-10T06:59:51;-3.60;54.60
81524;DHT22;70954;49.500;10.416;2024-01-10T07:02:16;-3.60;54.50
81524;DHT22;70954;49.500;10.416;2024-01-10T07:04:42;-3.60;54.40
81524;DHT22;70954;49.500;10.416;2024-01-10T07:07:07;-3.60;54.50
81524;DHT22;70954;49.500;10.416;2024-01-10T07:09:33;-3.60;54.60
81524;DHT22;70954;49.500;10.416;2024-01-10T07:11:58;-3.60;54.60
81524;DHT22;70954;49.500;10.416;2024-01-10T07:14:24;-3.60;54.60
81524;DHT22;70954;49.500;10.416;2024-01-10T07:16:49;-3.60;54.70
81524;DHT22;70954;49.500;10.416;2024-01-10T07:19:14;-3.60;54.70
81524;DHT22;70954;49.500;10.416;2024-01-10T07:21:41;-3.60;54.60
81524;DHT22;70954;49.500;10.416;2024-01-10T07:24:06;-3.60;54.60
81524;DHT22;70954;49.500;10.416;2024-01-10T07:26:32;-3.60;54.60
81524;DHT22;70954;49.500;10.416;2024-01-10T07:28:58;-3.60;54.60
81524;DHT22;70954;49.500;10.416;2024-01-10T07:31:23;-3.60;54.60
81524;DHT22;70954;49.500;10.416;2024-01-10T07:33:49;-3.60;54.70
81524;DHT22;70954;49.500;10.416;2024-01-10T07:36:14;-3.60;54.70
81524;DHT22;70954;49.500;10.416;2024-01-10T07:38:40;-3.50;54.70
81524;DHT22;70954;49.500;10.416;2024-01-10T07:41:05;-3.50;54.70
81524;DHT22;70954;49.500;10.416;2024-01-10T07:43:30;-3.50;54.70
81524;DHT22;70954;49.500;10.416;2024-01-10T07:45:56;-3.50;54.70
81524;DHT22;70954;49.500;10.416;2024-01-10T07:48:21;-3.50;54.80
81524;DHT22;70954;49.500;10.416;2024-01-10T07:50:47;-3.50;54.80
81524;DHT22;70954;49.500;10.416;2024-01-10T07:53:12;-3.50;54.90
81524;DHT22;70954;49.500;10.416;2024-01-10T07:55:38;-3.50;54.90
81524;DHT22;70954;49.500;10.416;2024-01-10T07:58:03;-3.40;54.90
81524;DHT22;70954;49.500;10.416;2024-01-10T08:00:29;-3.40;54.90
81524;DHT22;70954;49.500;10.416;2024-01-10T08:02:54;-3.40;55.00
81524;DHT22;70954;49.500;10.416;2024-01-10T08:05:20;-3.40;55.00
81524;DHT22;70954;49.500;10.416;2024-01-10T08:07:45;-3.30;55.00
81524;DHT22;70954;49.500;10.416;2024-01-10T08:10:10;-3.30;55.00
81524;DHT22;70954;49.500;10.416;2024-01-10T08:12:37;-3.30;54.90
81524;DHT22;70954;49.500;10.416;2024-01-10T08:15:03;-3.20;55.00
81524;DHT22;70954;49.500;10.416;2024-01-10T08:17:28;-3.20;55.00
81524;DHT22;70954;49.500;10.416;2024-01-10T08:19:53;-3.20;55.00
81524;DHT22;70954;49.500;10.416;2024-01-10T08:22:19;-3.20;55.00
81524;DHT22;70954;49.500;10.416;2024-01-10T08:24:45;-3.20;55.00
81524;DHT22;70954;49.500;10.416;2024-01-10T08:27:11;-3.10;55.00
81524;DHT22;70954;49.500;10.416;2024-01-10T08:29:37;-3.10;54.90
81524;DHT22;70954;49.500;10.416;2024-01-10T08:32:02;-3.10;54.90
81524;DHT22;70954;49.500;10.416;2024-01-10T08:34:28;-3.10;55.00
81524;DHT22;70954;49.500;10.416;2024-01-10T08:36:53;-3.00;55.10
81524;DHT22;70954;49.500;10.416;2024-01-10T08:39:19;-3.00;55.00
81524;DHT22;70954;49.500;10.416;2024-01-10T08:41:44;-2.90;55.00
81524;DHT22;70954;49.500;10.416;2024-01-10T08:44:13;-2.90;55.00
81524;DHT22;70954;49.500;10.416;2024-01-10T08:46:38;-2.90;55.20
81524;DHT22;70954;49.500;10.416;2024-01-10T08:49:04;-2.80;55.10
81524;DHT22;70954;49.500;10.416;2024-01-10T08:51:29;-2.80;55.10
81524;DHT22;70954;49.500;10.416;2024-01-10T08:53:55;-2.70;55.10
81524;DHT22;70954;49.500;10.416;2024-01-10T08:56:20;-2.60;55.20
81524;DHT22;70954;49.500;10.416;2024-01-10T08:58:46;-2.60;55.10
81524;DHT22;70954;49.500;10.416;2024-01-10T09:01:11;-2.50;55.10
81524;DHT22;70954;49.500;10.416;2024-01-10T09:03:37;-2.50;55.00
81524;DHT22;70954;49.500;10.416;2024-01-10T09:06:02;-2.50;55.00
81524;DHT22;70954;49.500;10.416;2024-01-10T09:08:28;-2.40;55.00
81524;DHT22;70954;49.500;10.416;2024-01-10T09:10:53;-2.40;55.10
81524;DHT22;70954;49.500;10.416;2024-01-10T09:13:19;-2.30;55.10
81524;DHT22;70954;49.500;10.416;2024-01-10T09:15:44;-2.30;55.00
81524;DHT22;70954;49.500;10.416;2024-01-10T09:18:09;-2.20;55.00
81524;DHT22;70954;49.500;10.416;2024-01-10T09:20:35;-2.10;54.90
81524;DHT22;70954;49.500;10.416;2024-01-10T09:23:00;-2.10;54.80
81524;DHT22;70954;49.500;10.416;2024-01-10T09:25:26;-2.10;54.70
81524;DHT22;70954;49.500;10.416;2024-01-10T09:27:51;-2.10;54.80
81524;DHT22;70954;49.500;10.416;2024-01-10T09:30:18;-2.00;54.70
81524;DHT22;70954;49.500;10.416;2024-01-10T09:32:43;-1.90;54.60
81524;DHT22;70954;49.500;10.416;2024-01-10T09:35:09;-1.90;54.60
81524;DHT22;70954;49.500;10.416;2024-01-10T09:37:34;-1.90;54.40
81524;DHT22;70954;49.500;10.416;2024-01-10T09:39:59;-1.90;54.40
81524;DHT22;70954;49.500;10.416;2024-01-10T09:42:25;-1.90;54.50
81524;DHT22;70954;49.500;10.416;2024-01-10T09:44:54;-1.80;54.40
81524;DHT22;70954;49.500;10.416;2024-01-10T09:47:20;-1.80;54.40
81524;DHT22;70954;49.500;10.416;2024-01-10T09:49:46;-1.80;54.50
81524;DHT22;70954;49.500;10.416;2024-01-10T09:52:19;-1.70;54.40
81524;DHT22;70954;49.500;10.416;2024-01-10T09:54:48;-1.70;54.40
81524;DHT22;70954;49.500;10.416;2024-01-10T09:57:18;-1.70;54.60
81524;DHT22;70954;49.500;10.416;2024-01-10T09:59:44;-1.60;54.70
81524;DHT22;70954;49.500;10.416;2024-01-10T10:02:09;-1.60;54.70
81524;DHT22;70954;49.500;10.416;2024-01-10T10:04:36;-1.50;54.80
81524;DHT22;70954;49.500;10.416;2024-01-10T10:07:02;-1.50;54.80
81524;DHT22;70954;49.500;10.416;2024-01-10T10:09:29;-1.40;55.10
81524;DHT22;70954;49.500;10.416;2024-01-10T10:11:55;-1.30;54.70
81524;DHT22;70954;49.500;10.416;2024-01-10T10:14:20;-1.30;54.90
81524;DHT22;70954;49.500;10.416;2024-01-10T10:16:46;-1.10;55.00
81524;DHT22;70954;49.500;10.416;2024-01-10T10:19:11;-1.10;55.00
81524;DHT22;70954;49.500;10.416;2024-01-10T10:21:37;-1.00;54.90
81524;DHT22;70954;49.500;10.416;2024-01-10T10:24:03;-0.90;54.60
81524;DHT22;70954;49.500;10.416;2024-01-10T10:26:28;-0.80;54.80
81524;DHT22;70954;49.500;10.416;2024-01-10T10:28:54;-0.70;54.80
81524;DHT22;70954;49.500;10.416;2024-01-10T10:31:20;-0.70;54.70
81524;DHT22;70954;49.500;10.416;2024-01-10T10:33:46;-0.60;54.50
81524;DHT22;70954;49.500;10.416;2024-01-10T10:36:16;-0.50;54.50
81524;DHT22;70954;49.500;10.416;2024-01-10T10:38:42;-0.50;54.40
81524;DHT22;70954;49.500;10.416;2024-01-10T10:41:07;-0.40;54.00
81524;DHT22;70954;49.500;10.416;2024-01-10T10:43:34;-0.40;53.50
81524;DHT22;70954;49.500;10.416;2024-01-10T10:46:01;-0.30;53.90
81524;DHT22;70954;49.500;10.416;2024-01-10T10:48:26;-0.30;54.00
81524;DHT22;70954;49.500;10.416;2024-01-10T10:51:10;-0.20;53.80
81524;DHT22;70954;49.500;10.416;2024-01-10T10:53:38;-0.20;53.40
81524;DHT22;70954;49.500;10.416;2024-01-10T10:56:05;-0.20;53.60
81524;DHT22;70954;49.500;10.416;2024-01-10T10:58:37;-0.10;53.60
81524;DHT22;70954;49.500;10.416;2024-01-10T11:01:07;-0.10;53.60
81524;DHT22;70954;49.500;10.416;2024-01-10T11:03:38;-0.10;53.40
81524;DHT22;70954;49.500;10.416;2024-01-10T11:06:05;-0.10;53.50
81524;DHT22;70954;49.500;10.416;2024-01-10T11:08:36;-0.10;53.40
81524;DHT22;70954;49.500;10.416;2024-01-10T11:11:26;-0.10;53.40
81524;DHT22;70954;49.500;10.416;2024-01-10T11:22:31;0.00;52.90
81524;DHT22;70954;49.500;10.416;2024-01-10T11:25:01;0.00;53.20
81524;DHT22;70954;49.500;10.416;2024-01-10T11:27:26;0.00;53.50
81524;DHT22;70954;49.500;10.416;2024-01-10T11:29:52;0.00;53.40
81524;DHT22;70954;49.500;10.416;2024-01-10T11:32:21;0.10;53.20
81524;DHT22;70954;49.500;10.416;2024-01-10T11:37:22;0.20;53.40
81524;DHT22;70954;49.500;10.416;2024-01-10T11:39:50;0.20;53.10
81524;DHT22;70954;49.500;10.416;2024-01-10T11:42:23;0.30;53.20
81524;DHT22;70954;49.500;10.416;2024-01-10T11:44:50;0.30;53.40
81524;DHT22;70954;49.500;10.416;2024-01-10T11:47:16;0.30;53.20
81524;DHT22;70954;49.500;10.416;2024-01-10T11:49:53;0.30;53.10
81524;DHT22;70954;49.500;10.416;2024-01-10T11:52:21;0.40;53.10
81524;DHT22;70954;49.500;10.416;2024-01-10T11:54:47;0.40;53.30
81524;DHT22;70954;49.500;10.416;2024-01-10T11:57:25;0.40;53.20
81524;DHT22;70954;49.500;10.416;2024-01-10T11:59:55;0.50;53.20
81524;DHT22;70954;49.500;10.416;2024-01-10T12:02:22;0.50;53.20
81524;DHT22;70954;49.500;10.416;2024-01-10T12:04:48;0.50;53.10
81524;DHT22;70954;49.500;10.416;2024-01-10T12:07:14;0.50;52.90
81524;DHT22;70954;49.500;10.416;2024-01-10T12:09:40;0.60;53.10
81524;DHT22;70954;49.500;10.416;2024-01-10T12:12:06;0.60;52.60
81524;DHT22;70954;49.500;10.416;2024-01-10T12:14:32;0.60;52.30
81524;DHT22;70954;49.500;10.416;2024-01-10T12:16:59;0.60;52.70
81524;DHT22;70954;49.500;10.416;2024-01-10T12:19:25;0.60;52.70
81524;DHT22;70954;49.500;10.416;2024-01-10T12:21:50;0.60;52.60
81524;DHT22;70954;49.500;10.416;2024-01-10T12:24:16;0.60;52.80
81524;DHT22;70954;49.500;10.416;2024-01-10T12:26:45;0.60;52.90
81524;DHT22;70954;49.500;10.416;2024-01-10T12:29:11;0.60;53.00
81524;DHT22;70954;49.500;10.416;2024-01-10T12:31:37;0.60;53.10
81524;DHT22;70954;49.500;10.416;2024-01-10T12:34:03;0.60;52.90
81524;DHT22;70954;49.500;10.416;2024-01-10T12:36:28;0.60;53.00
81524;DHT22;70954;49.500;10.416;2024-01-10T12:38:54;0.70;53.10
81524;DHT22;70954;49.500;10.416;2024-01-10T12:41:20;0.70;53.20
81524;DHT22;70954;49.500;10.416;2024-01-10T12:43:49;0.80;52.80
81524;DHT22;70954;49.500;10.416;2024-01-10T12:46:15;0.80;52.90
81524;DHT22;70954;49.500;10.416;2024-01-10T12:48:41;0.80;52.70
81524;DHT22;70954;49.500;10.416;2024-01-10T12:51:11;0.80;52.90
81524;DHT22;70954;49.500;10.416;2024-01-10T12:53:38;0.80;52.90
81524;DHT22;70954;49.500;10.416;2024-01-10T12:56:06;0.80;52.90
81524;DHT22;70954;49.500;10.416;2024-01-10T12:58:32;0.80;52.90
81524;DHT22;70954;49.500;10.416;2024-01-10T13:00:58;0.80;52.80
81524;DHT22;70954;49.500;10.416;2024-01-10T13:03:24;0.80;52.60
81524;DHT22;70954;49.500;10.416;2024-01-10T13:05:53;0.80;52.50
81524;DHT22;70954;49.500;10.416;2024-01-10T13:08:19;0.90;52.70
81524;DHT22;70954;49.500;10.416;2024-01-10T13:10:45;0.80;52.70
81524;DHT22;70954;49.500;10.416;2024-01-10T13:13:11;0.90;52.70
81524;DHT22;70954;49.500;10.416;2024-01-10T13:15:37;0.90;52.80
81524;DHT22;70954;49.500;10.416;2024-01-10T13:18:02;0.90;52.40
81524;DHT22;70954;49.500;10.416;2024-01-10T13:20:28;0.90;52.50
81524;DHT22;70954;49.500;10.416;2024-01-10T13:22:53;1.00;52.60
81524;DHT22;70954;49.500;10.416;2024-01-10T13:25:19;1.00;52.70
81524;DHT22;70954;49.500;10.416;2024-01-10T13:27:44;1.00;52.70
81524;DHT22;70954;49.500;10.416;2024-01-10T13:30:10;1.00;52.60
81524;DHT22;70954;49.500;10.416;2024-01-10T13:32:35;1.00;52.50
81524;DHT22;70954;49.500;10.416;2024-01-10T13:35:01;1.00;52.60
81524;DHT22;70954;49.500;10.416;2024-01-10T13:37:27;1.00;52.50
81524;DHT22;70954;49.500;10.416;2024-01-10T13:39:52;1.00;52.40
81524;DHT22;70954;49.500;10.416;2024-01-10T13:42:17;1.00;52.50
81524;DHT22;70954;49.500;10.416;2024-01-10T13:44:43;1.00;52.50
81524;DHT22;70954;49.500;10.416;2024-01-10T13:47:08;1.00;52.60
81524;DHT22;70954;49.500;10.416;2024-01-10T13:49:34;1.00;52.60
81524;DHT22;70954;49.500;10.416;2024-01-10T13:51:59;1.00;52.50
81524;DHT22;70954;49.500;10.416;2024-01-10T13:54:24;1.00;52.50
81524;DHT22;70954;49.500;10.416;2024-01-10T13:56:50;1.00;52.60
81524;DHT22;70954;49.500;10.416;2024-01-10T13:59:15;1.00;52.40
81524;DHT22;70954;49.500;10.416;2024-01-10T14:01:41;1.00;52.60
81524;DHT22;70954;49.500;10.416;2024-01-10T14:04:06;1.00;52.50
81524;DHT22;70954;49.500;10.416;2024-01-10T14:06:32;1.00;52.60
81524;DHT22;70954;49.500;10.416;2024-01-10T14:08:58;1.10;52.50
81524;DHT22;70954;49.500;10.416;2024-01-10T14:11:23;1.00;52.50
81524;DHT22;70954;49.500;10.416;2024-01-10T14:13:49;1.10;52.60
81524;DHT22;70954;49.500;10.416;2024-01-10T14:16:14;1.10;52.60
81524;DHT22;70954;49.500;10.416;2024-01-10T14:18:42;1.10;52.70
81524;DHT22;70954;49.500;10.416;2024-01-10T14:21:08;1.10;52.60
81524;DHT22;70954;49.500;10.416;2024-01-10T14:23:33;1.10;52.70
81524;DHT22;70954;49.500;10.416;2024-01-10T14:26:00;1.10;52.70
81524;DHT22;70954;49.500;10.416;2024-01-10T14:28:25;1.10;52.70
81524;DHT22;70954;49.500;10.416;2024-01-10T14:30:51;1.10;52.50
81524;DHT22;70954;49.500;10.416;2024-01-10T14:33:16;1.20;52.70
81524;DHT22;70954;49.500;10.416;2024-01-10T14:35:42;1.20;52.60
81524;DHT22;70954;49.500;10.416;2024-01-10T14:38:07;1.10;52.70
81524;DHT22;70954;49.500;10.416;2024-01-10T14:40:33;1.20;52.60
81524;DHT22;70954;49.500;10.416;2024-01-10T14:42:58;1.20;52.60
81524;DHT22;70954;49.500;10.416;2024-01-10T14:45:24;1.20;52.60
81524;DHT22;70954;49.500;10.416;2024-01-10T14:47:49;1.20;52.50
81524;DHT22;70954;49.500;10.416;2024-01-10T14:50:15;1.20;52.50
81524;DHT22;70954;49.500;10.416;2024-01-10T14:52:40;1.20;52.50
81524;DHT22;70954;49.500;10.416;2024-01-10T14:55:06;1.20;52.50
81524;DHT22;70954;49.500;10.416;2024-01-10T14:57:32;1.20;52.40
81524;DHT22;70954;49.500;10.416;2024-01-10T14:59:58;1.20;52.50
81524;DHT22;70954;49.500;10.416;2024-01-10T15:02:23;1.20;52.40
81524;DHT22;70954;49.500;10.416;2024-01-10T15:04:48;1.20;52.40
81524;DHT22;70954;49.500;10.416;2024-01-10T15:07:14;1.10;52.40
81524;DHT22;70954;49.500;10.416;2024-01-10T15:09:42;1.20;52.40
81524;DHT22;70954;49.500;10.416;2024-01-10T15:12:08;1.20;52.40
81524;DHT22;70954;49.500;10.416;2024-01-10T15:14:34;1.10;52.50
81524;DHT22;70954;49.500;10.416;2024-01-10T15:16:59;1.10;52.40
81524;DHT22;70954;49.500;10.416;2024-01-10T15:19:25;1.10;52.40
81524;DHT22;70954;49.500;10.416;2024-01-10T15:21:50;1.10;52.50